Maldives Meteorological Service

METAR

Station
VRMM
METAR VRMG 200900Z 24014KT 9999 FEW018 BKN250 30/24 Q1008 NOSIG=
VRMH
METAR VRMH 200900Z 25014KT 9999 FEW017 BKN260 31/26 Q1006=
VRMK
METAR VRMK 200900Z 23010KT 9999 FEW018TCU BKN260 31/26 Q1007=
VRMT
METAR VRMT 200900Z 25008KT 9999 FEW018 FEW019CB BKN260 30/25 Q1007 CB N,NNE=
VRMG
METAR VRMG 20900Z 27012KT 9999 FEW019 BKN250 30/246 Q1007 NOSIG=
Last Updated : 2019-07-20 14:17:39

SPECI

Station
VRMM
VRMH
VRMK
VRMT
VRMG
Last Updated : 2019-07-20 14:17:39